Главная страница
METAR-TAF:

METAR-TAF

Аэропорты :

Олесунн, Норвегия

широта: 62-34N, долгота: 006-07E, высота над уровнем моря: 2 м

Текущие метеонаблюдения

Эта сводка был подготовлена 17 минут назад, в 18:20 UTC
Ветер 9 Узел от южный-юго-западный
Температура 14°C
Влажность 67%
Давление 1015 hPa
Видимость 10 км и более
Нет облачности ниже 1500 м, и нет кучево-дождевой облачности

METAR: ENAL 151820Z 21009KT CAVOK 14/08 Q1015

Время: 19:37 (18:37 UTC)

Прогноз

Эта сводка был подготовлена 1 час и 37 минут назад, в 17:00 UTC
Прогноз действительный с 15-го 18 UTC до 15-го 23 UTC
Ветер 8 Узел от южный
Видимость 10 км и более
Отдельные облака на высоте 5000 фута

TAF: ENAL 151700Z 1518/1523 18008KT 9999 SCT050

Метеонаблюдения и прогнозы для более 4000 аэропортов (сводки METAR и TAF).

Имеющиеся станции представлены на карте желтыми и красными точками.

Чтобы увидеть название станции, наведите на нее мышь.

Затем щелкните, чтобы увидеть метеонаблюдения и метеопрогнозы.

Управление картой: чтобы увеличить масштаб, щелкните зеленые кнопки с черным крестиком; чтобы уменьшить масштаб, щелкните зеленую кнопку с тире; для просмотра соседних карт щелкайте зеленые стрелки.


METAR-TAF: